createdAt,value
2019-05-07T00:01:02.956Z,100490.12
2019-05-07T00:04:06.399Z,100490.12
2019-05-07T00:07:09.883Z,100492.36
2019-05-07T00:10:13.399Z,100495.01
2019-05-07T00:13:16.893Z,100489.72
2019-05-07T00:16:22.380Z,100489.72
2019-05-07T00:19:25.794Z,100493.32
2019-05-07T00:22:29.246Z,100493.69
2019-05-07T00:25:33.031Z,100491.91
2019-05-07T00:28:36.540Z,100490.67
2019-05-07T00:31:42.002Z,100492.36
2019-05-07T00:34:49.818Z,100499.94
2019-05-07T00:38:02.548Z,100493.32
2019-05-07T00:41:15.700Z,100498.79
2019-05-07T00:44:19.425Z,100494.83
2019-05-07T00:47:23.880Z,100492.17
2019-05-07T00:50:33.125Z,100489.53
2019-05-07T00:53:36.823Z,100486.89
2019-05-07T00:56:42.900Z,100484.73
2019-05-07T00:59:46.888Z,100487.38
2019-05-07T01:02:52.394Z,100485.66
2019-05-07T01:05:55.743Z,100491.44
2019-05-07T01:08:59.241Z,100475.93
2019-05-07T01:12:03.249Z,100482.17
2019-05-07T01:15:06.790Z,100479.62
2019-05-07T01:18:12.285Z,100480.45
2019-05-07T01:21:15.529Z,100483.09
2019-05-07T01:24:18.993Z,100483.01
2019-05-07T01:27:22.815Z,100474.42
2019-05-07T01:30:26.405Z,100477.44
2019-05-07T01:33:38.419Z,100477.06
2019-05-07T01:36:42.744Z,100478.02
2019-05-07T01:39:47.343Z,100475.28
2019-05-07T01:42:52.920Z,100479.71
2019-05-07T01:45:56.146Z,100479.71
2019-05-07T01:48:59.550Z,100477.62
2019-05-07T01:52:04.040Z,100477.25
2019-05-07T01:55:07.520Z,100480.76
2019-05-07T01:58:12.535Z,100475.92
2019-05-07T02:01:16.365Z,100467.98
2019-05-07T02:04:32.654Z,100473.28
2019-05-07T02:07:45.536Z,100470.27
2019-05-07T02:11:08.042Z,100471.19
2019-05-07T02:14:13.494Z,100479.52
2019-05-07T02:17:16.719Z,100469.46
2019-05-07T02:20:22.388Z,100476.48
2019-05-07T02:23:25.510Z,100472.97
2019-05-07T02:26:32.078Z,100478.72
2019-05-07T02:29:38.039Z,100474.75
2019-05-07T02:32:43.135Z,100473.89
2019-05-07T02:35:45.663Z,100465.13
2019-05-07T02:38:54.517Z,100463.43
2019-05-07T02:41:59.012Z,100470.41
2019-05-07T02:45:24.233Z,100467.27
2019-05-07T02:48:33.283Z,100463.43
2019-05-07T02:51:43.498Z,100467.39
2019-05-07T02:55:13.169Z,100463.98
2019-05-07T02:58:16.012Z,100456.41
2019-05-07T03:01:22.456Z,100460.97
2019-05-07T03:04:25.480Z,100454.72
2019-05-07T03:07:33.185Z,100456.05
2019-05-07T03:10:35.245Z,100462.66
2019-05-07T03:13:39.765Z,100458.69
2019-05-07T03:16:48.534Z,100451.80
2019-05-07T03:19:53.193Z,100453.95
2019-05-07T03:22:57.493Z,100451.30
2019-05-07T03:26:06.693Z,100451.30
2019-05-07T03:29:14.738Z,100459.33
2019-05-07T03:32:39.525Z,100454.91
2019-05-07T03:35:47.055Z,100459.33
2019-05-07T03:38:53.796Z,100461.61
2019-05-07T03:41:57.504Z,100464.74
2019-05-07T03:45:23.056Z,100468.22
2019-05-07T03:48:27.930Z,100464.74
2019-05-07T03:51:32.987Z,100456.41
2019-05-07T03:54:36.547Z,100462.09
2019-05-07T03:57:43.255Z,100465.20
2019-05-07T04:00:45.934Z,100467.39
2019-05-07T04:03:49.429Z,100468.80
2019-05-07T04:06:53.919Z,100477.97
2019-05-07T04:09:59.383Z,100479.84
2019-05-07T04:13:04.512Z,100480.61
2019-05-07T04:16:08.163Z,100486.08
2019-05-07T04:19:13.286Z,100477.28
2019-05-07T04:22:19.390Z,100486.45
2019-05-07T04:25:29.693Z,100487.41
2019-05-07T04:28:55.199Z,100492.11
2019-05-07T04:31:58.958Z,100486.08
2019-05-07T04:35:12.540Z,100493.16
2019-05-07T04:38:15.144Z,100485.68
2019-05-07T04:41:18.850Z,100491.74
2019-05-07T04:44:23.768Z,100491.37
2019-05-07T04:47:38.694Z,100494.39
2019-05-07T04:50:42.996Z,100490.51
2019-05-07T04:53:42.929Z,100500.23
2019-05-07T04:56:45.950Z,100499.48
2019-05-07T04:59:49.484Z,100496.84
2019-05-07T05:03:18.360Z,100501.55
2019-05-07T05:06:24.203Z,100502.41
2019-05-07T05:09:27.236Z,100505.61
2019-05-07T05:12:32.652Z,100505.52
2019-05-07T05:15:36.034Z,100503.27
2019-05-07T05:18:41.931Z,100505.61
2019-05-07T05:21:52.837Z,100510.89
2019-05-07T05:25:27.565Z,100507.80
2019-05-07T05:28:32.328Z,100509.11
2019-05-07T05:31:36.221Z,100512.30
2019-05-07T05:34:39.706Z,100515.36
2019-05-07T05:37:43.380Z,100514.03
2019-05-07T05:40:46.796Z,100508.34
2019-05-07T05:44:09.353Z,100510.98
2019-05-07T05:47:12.914Z,100510.06
2019-05-07T05:50:16.442Z,100508.34
2019-05-07T05:53:32.668Z,100511.76
2019-05-07T05:57:02.604Z,100514.03
2019-05-07T06:00:36.663Z,100516.27
2019-05-07T06:03:56.842Z,100517.59
2019-05-07T06:07:11.300Z,100518.17
2019-05-07T06:10:33.001Z,100526.39
2019-05-07T06:13:43.633Z,100521.56
2019-05-07T06:17:22.402Z,100523.47
2019-05-07T06:20:44.969Z,100521.56
2019-05-07T06:23:52.918Z,100528.17
2019-05-07T06:26:56.438Z,100523.29
2019-05-07T06:30:04.342Z,100529.50
2019-05-07T06:33:05.249Z,100524.98
2019-05-07T06:36:08.727Z,100532.92
2019-05-07T06:39:18.363Z,100529.32
2019-05-07T06:42:42.753Z,100538.03
2019-05-07T06:45:51.928Z,100533.69
2019-05-07T06:48:56.637Z,100537.25
2019-05-07T06:52:03.144Z,100528.77
2019-05-07T06:55:08.331Z,100534.44
2019-05-07T06:58:12.529Z,100536.16
2019-05-07T07:01:32.289Z,100534.44
2019-05-07T07:04:45.439Z,100533.52
2019-05-07T07:07:56.131Z,100531.70
2019-05-07T07:11:04.761Z,100533.52
2019-05-07T07:14:08.331Z,100529.92
2019-05-07T07:17:12.913Z,100529.92
2019-05-07T07:20:16.544Z,100531.98
2019-05-07T07:23:19.978Z,100531.98
2019-05-07T07:26:24.457Z,100534.08
2019-05-07T07:29:32.428Z,100537.09
2019-05-07T07:32:38.433Z,100532.58
2019-05-07T07:35:43.895Z,100535.55
2019-05-07T07:38:49.471Z,100534.99
2019-05-07T07:41:55.631Z,100531.85
2019-05-07T07:45:15.282Z,100530.94
2019-05-07T07:48:18.813Z,100529.98
2019-05-07T07:51:36.853Z,100528.08
2019-05-07T07:54:27.809Z,100523.19
2019-05-07T07:57:45.441Z,100528.30
2019-05-07T08:00:55.990Z,100528.84
2019-05-07T08:03:59.461Z,100524.33
2019-05-07T08:07:03.996Z,100526.02
2019-05-07T08:10:08.519Z,100520.73
2019-05-07T08:13:14.059Z,100516.67
2019-05-07T08:16:17.458Z,100513.16
2019-05-07T08:19:22.750Z,100513.08
2019-05-07T08:22:26.208Z,100515.26
2019-05-07T08:25:48.014Z,100516.00
2019-05-07T08:28:52.402Z,100516.95
2019-05-07T08:32:06.418Z,100525.84
2019-05-07T08:35:32.686Z,100529.81
2019-05-07T08:38:52.446Z,100528.86
2019-05-07T08:41:54.996Z,100522.25
2019-05-07T08:45:05.616Z,100526.21
2019-05-07T08:48:14.206Z,100520.74
2019-05-07T08:51:17.794Z,100523.76
2019-05-07T08:54:23.336Z,100521.97
2019-05-07T08:57:26.851Z,100520.56
2019-05-07T09:00:32.622Z,100519.23
2019-05-07T09:03:45.137Z,100522.84
2019-05-07T09:06:49.614Z,100516.59
2019-05-07T09:09:53.125Z,100512.03
2019-05-07T09:12:56.696Z,100513.76
2019-05-07T09:16:02.302Z,100512.81
2019-05-07T09:19:05.600Z,100505.64
2019-05-07T09:22:09.163Z,100503.82
2019-05-07T09:25:15.010Z,100506.88
2019-05-07T09:28:19.571Z,100512.04
2019-05-07T09:31:32.102Z,100504.59
2019-05-07T09:34:38.310Z,100499.30
2019-05-07T09:37:42.131Z,100497.48
2019-05-07T09:40:45.797Z,100502.31
2019-05-07T09:43:49.248Z,100499.67
2019-05-07T09:46:53.797Z,100498.44
2019-05-07T09:50:04.766Z,100502.77
2019-05-07T09:53:02.768Z,100503.17
2019-05-07T09:56:06.350Z,100497.30
2019-05-07T09:59:09.972Z,100500.44
2019-05-07T10:02:13.520Z,100504.31
2019-05-07T10:05:17.202Z,100504.31
2019-05-07T10:08:21.760Z,100503.82
2019-05-07T10:11:34.521Z,100506.96
2019-05-07T10:14:38.148Z,100507.80
2019-05-07T10:17:50.802Z,100513.09
2019-05-07T10:20:54.457Z,100514.32
2019-05-07T10:23:57.910Z,100511.30
2019-05-07T10:27:02.237Z,100503.27
2019-05-07T10:30:06.049Z,100507.70
2019-05-07T10:33:09.620Z,100509.98
2019-05-07T10:36:14.167Z,100510.53
2019-05-07T10:39:18.789Z,100506.02
2019-05-07T10:42:22.742Z,100499.77
2019-05-07T10:45:58.483Z,100498.63
2019-05-07T10:49:17.567Z,100498.44
2019-05-07T10:52:27.109Z,100500.80
2019-05-07T10:55:32.700Z,100498.44
2019-05-07T10:58:36.024Z,100507.23
2019-05-07T11:01:51.995Z,100509.70
2019-05-07T11:04:56.731Z,100503.91
2019-05-07T11:08:02.261Z,100509.61
2019-05-07T11:11:05.396Z,100507.80
2019-05-07T11:14:12.312Z,100503.73
2019-05-07T11:17:25.290Z,100502.41
2019-05-07T11:20:28.771Z,100501.67
2019-05-07T11:23:33.298Z,100509.02
2019-05-07T11:26:37.886Z,100506.78
2019-05-07T11:29:42.952Z,100497.38
2019-05-07T11:32:48.718Z,100495.97
2019-05-07T11:35:54.279Z,100490.30
2019-05-07T11:38:57.758Z,100487.93
2019-05-07T11:42:13.217Z,100491.34
2019-05-07T11:45:22.765Z,100484.63
2019-05-07T11:48:26.945Z,100487.65
2019-05-07T11:51:38.638Z,100486.50
2019-05-07T11:54:43.306Z,100480.19
2019-05-07T11:57:46.832Z,100481.41
2019-05-07T12:00:55.540Z,100474.20
2019-05-07T12:04:01.976Z,100469.27
2019-05-07T12:07:05.312Z,100477.63
2019-05-07T12:10:09.174Z,100484.09
2019-05-07T12:13:12.945Z,100475.18
2019-05-07T12:16:16.650Z,100478.10
2019-05-07T12:19:22.671Z,100483.86
2019-05-07T12:22:46.412Z,100478.01
2019-05-07T12:25:49.894Z,100471.66
2019-05-07T12:28:53.373Z,100473.38
2019-05-07T12:32:05.532Z,100478.36
2019-05-07T12:35:12.716Z,100472.13
2019-05-07T12:38:16.469Z,100477.80
2019-05-07T12:41:34.182Z,100470.22
2019-05-07T12:44:37.926Z,100463.40
2019-05-07T12:47:45.523Z,100462.84
2019-05-07T12:50:49.024Z,100450.42
2019-05-07T12:53:57.916Z,100449.39
2019-05-07T12:57:07.281Z,100455.80
2019-05-07T13:00:28.867Z,100452.22
2019-05-07T13:03:39.768Z,100447.64
2019-05-07T13:06:56.253Z,100442.74
2019-05-07T13:09:59.799Z,100442.61
2019-05-07T13:13:04.316Z,100443.48
2019-05-07T13:16:07.806Z,100445.17
2019-05-07T13:19:13.076Z,100434.00
2019-05-07T13:22:16.651Z,100432.94
2019-05-07T13:25:21.616Z,100432.84
2019-05-07T13:28:25.491Z,100429.23
2019-05-07T13:31:28.994Z,100424.70
2019-05-07T13:34:34.197Z,100421.48
2019-05-07T13:37:41.822Z,100420.42
2019-05-07T13:41:12.572Z,100414.66
2019-05-07T13:44:29.006Z,100411.41
2019-05-07T13:47:40.592Z,100410.84
2019-05-07T13:50:46.162Z,100401.73
2019-05-07T13:53:49.630Z,100407.99
2019-05-07T13:56:53.160Z,100405.87
2019-05-07T13:59:56.626Z,100400.77
2019-05-07T14:03:00.256Z,100410.25
2019-05-07T14:06:04.558Z,100393.11
2019-05-07T14:09:16.388Z,100400.23
2019-05-07T14:12:19.837Z,100395.50
2019-05-07T14:15:24.386Z,100396.20
2019-05-07T14:18:27.882Z,100392.69
2019-05-07T14:21:32.478Z,100390.14
2019-05-07T14:24:36.131Z,100396.34
2019-05-07T14:27:42.676Z,100386.13
2019-05-07T14:30:45.959Z,100381.76
2019-05-07T14:33:57.699Z,100384.41
2019-05-07T14:37:26.432Z,100374.63
2019-05-07T14:40:32.205Z,100370.06
2019-05-07T14:43:49.667Z,100368.55
2019-05-07T14:46:54.446Z,100370.39
2019-05-07T14:49:58.015Z,100376.23
2019-05-07T14:53:02.719Z,100364.87
2019-05-07T14:56:06.547Z,100366.66
2019-05-07T14:59:10.156Z,100368.58
2019-05-07T15:02:13.621Z,100361.45
2019-05-07T15:05:17.136Z,100358.08
2019-05-07T15:08:21.987Z,100359.50
2019-05-07T15:11:25.555Z,100357.98
2019-05-07T15:14:31.332Z,100362.87
2019-05-07T15:17:45.987Z,100360.16
2019-05-07T15:20:49.570Z,100363.28
2019-05-07T15:23:53.664Z,100353.80
2019-05-07T15:26:57.469Z,100359.30
2019-05-07T15:30:02.285Z,100354.67
2019-05-07T15:33:05.839Z,100346.25
2019-05-07T15:36:11.949Z,100347.64
2019-05-07T15:39:15.511Z,100347.38
2019-05-07T15:42:22.107Z,100350.19
2019-05-07T15:45:26.410Z,100341.22
2019-05-07T15:48:29.894Z,100341.12
2019-05-07T15:51:34.424Z,100334.86
2019-05-07T15:54:37.953Z,100339.95
2019-05-07T15:57:42.813Z,100339.00
2019-05-07T16:00:47.201Z,100340.92
2019-05-07T16:03:54.312Z,100337.14
2019-05-07T16:06:57.981Z,100339.43
2019-05-07T16:10:01.581Z,100338.50
2019-05-07T16:13:07.991Z,100335.06
2019-05-07T16:16:12.490Z,100333.94
2019-05-07T16:19:21.120Z,100332.25
2019-05-07T16:22:32.765Z,100319.56
2019-05-07T16:25:37.301Z,100329.96
2019-05-07T16:28:41.720Z,100319.47
2019-05-07T16:31:45.329Z,100323.44
2019-05-07T16:34:48.820Z,100321.28
2019-05-07T16:37:53.396Z,100322.41
2019-05-07T16:40:56.858Z,100319.36
2019-05-07T16:44:02.903Z,100316.71
2019-05-07T16:47:07.542Z,100320.69
2019-05-07T16:50:12.952Z,100324.66
2019-05-07T16:53:27.432Z,100322.02
2019-05-07T16:56:22.733Z,100325.63
2019-05-07T16:59:26.565Z,100327.52
2019-05-07T17:02:34.170Z,100328.01
2019-05-07T17:05:37.746Z,100331.13
2019-05-07T17:08:51.677Z,100324.50
2019-05-07T17:12:01.324Z,100329.06
2019-05-07T17:15:05.352Z,100334.73
2019-05-07T17:18:08.960Z,100333.97
2019-05-07T17:21:12.494Z,100333.24
2019-05-07T17:24:15.963Z,100335.49
2019-05-07T17:27:19.480Z,100335.89
2019-05-07T17:30:22.961Z,100336.09
2019-05-07T17:33:26.515Z,100339.59
2019-05-07T17:36:29.967Z,100338.64
2019-05-07T17:39:33.471Z,100333.24
2019-05-07T17:42:36.986Z,100342.25
2019-05-07T17:45:40.469Z,100344.03
2019-05-07T17:48:43.977Z,100347.41
2019-05-07T17:51:47.506Z,100345.72
2019-05-07T17:54:52.781Z,100345.72
2019-05-07T17:57:56.340Z,100342.81
2019-05-07T18:01:02.587Z,100345.00
2019-05-07T18:04:06.198Z,100351.98
2019-05-07T18:07:12.026Z,100349.33
2019-05-07T18:10:15.662Z,100346.69
2019-05-07T18:13:22.274Z,100348.57
2019-05-07T18:16:42.218Z,100344.03
2019-05-07T18:19:48.512Z,100341.13
2019-05-07T18:22:54.033Z,100344.59
2019-05-07T18:25:58.734Z,100343.27
2019-05-07T18:29:02.548Z,100349.17
2019-05-07T18:32:06.752Z,100351.22
2019-05-07T18:35:12.488Z,100346.42
2019-05-07T18:38:15.627Z,100334.59
2019-05-07T18:41:22.225Z,100347.84
2019-05-07T18:44:25.485Z,100346.52
2019-05-07T18:47:30.017Z,100339.03
2019-05-07T18:50:34.541Z,100343.01
2019-05-07T18:53:38.077Z,100347.45
2019-05-07T18:56:42.163Z,100341.22
2019-05-07T18:59:45.862Z,100343.47
2019-05-07T19:02:52.318Z,100347.94
2019-05-07T19:05:56.240Z,100346.98
2019-05-07T19:09:00.677Z,100347.55
2019-05-07T19:12:06.674Z,100350.09
2019-05-07T19:15:12.311Z,100350.09
2019-05-07T19:18:15.476Z,100350.59
2019-05-07T19:21:18.978Z,100358.90
2019-05-07T19:24:26.095Z,100354.06
2019-05-07T19:27:28.843Z,100347.45
2019-05-07T19:30:33.368Z,100349.73
2019-05-07T19:33:36.880Z,100342.74
2019-05-07T19:36:42.382Z,100343.70
2019-05-07T19:39:49.606Z,100344.33
2019-05-07T19:42:53.092Z,100340.55
2019-05-07T19:45:57.633Z,100342.56
2019-05-07T19:49:02.752Z,100334.63
2019-05-07T19:52:06.475Z,100337.56
2019-05-07T19:55:09.964Z,100340.88
2019-05-07T19:58:13.469Z,100333.69
2019-05-07T20:01:22.640Z,100335.77
2019-05-07T20:04:25.803Z,100330.78
2019-05-07T20:07:31.963Z,100333.62
2019-05-07T20:10:42.763Z,100325.67
2019-05-07T20:13:46.342Z,100327.20
2019-05-07T20:16:53.004Z,100319.72
2019-05-07T20:19:56.224Z,100321.44
2019-05-07T20:23:02.640Z,100325.97
2019-05-07T20:26:07.959Z,100323.88
2019-05-07T20:29:12.313Z,100319.55
2019-05-07T20:32:15.955Z,100318.68
2019-05-07T20:35:23.543Z,100317.86
2019-05-07T20:38:28.075Z,100321.83
2019-05-07T20:41:33.624Z,100318.41
2019-05-07T20:44:37.150Z,100312.20
2019-05-07T20:47:42.256Z,100307.09
2019-05-07T20:50:45.776Z,100307.19
2019-05-07T20:54:06.923Z,100305.87
2019-05-07T20:57:22.322Z,100309.74
2019-05-07T21:00:29.825Z,100313.91
2019-05-07T21:03:33.346Z,100305.47
2019-05-07T21:06:37.891Z,100306.89
2019-05-07T21:09:42.450Z,100304.38
2019-05-07T21:12:47.951Z,100301.82
2019-05-07T21:15:58.413Z,100304.47
2019-05-07T21:19:02.187Z,100300.59
2019-05-07T21:22:05.818Z,100303.15
2019-05-07T21:25:09.320Z,100299.73
2019-05-07T21:28:12.842Z,100300.20
2019-05-07T21:31:17.355Z,100297.55
2019-05-07T21:34:22.993Z,100288.78
2019-05-07T21:37:26.829Z,100292.36
2019-05-07T21:40:32.050Z,100292.85
2019-05-07T21:43:35.671Z,100285.73
2019-05-07T21:46:39.170Z,100295.69
2019-05-07T21:49:43.142Z,100289.94
2019-05-07T21:52:51.416Z,100292.09
2019-05-07T21:56:07.022Z,100294.73
2019-05-07T21:59:14.227Z,100285.97
2019-05-07T22:02:22.217Z,100282.92
2019-05-07T22:05:25.776Z,100286.89
2019-05-07T22:08:29.262Z,100279.05
2019-05-07T22:11:32.779Z,100274.61
2019-05-07T22:14:36.268Z,100277.45
2019-05-07T22:17:39.767Z,100277.55
2019-05-07T22:20:44.309Z,100272.62
2019-05-07T22:23:47.803Z,100277.09
2019-05-07T22:26:53.333Z,100281.06
2019-05-07T22:29:57.865Z,100281.06
2019-05-07T22:33:12.890Z,100266.50
2019-05-07T22:36:16.400Z,100272.36
2019-05-07T22:39:21.933Z,100262.36
2019-05-07T22:42:25.204Z,100264.32
2019-05-07T22:45:28.692Z,100266.23
2019-05-07T22:48:32.565Z,100256.67
2019-05-07T22:51:36.088Z,100259.72
2019-05-07T22:54:42.741Z,100255.34
2019-05-07T22:58:06.294Z,100252.34
2019-05-07T23:01:13.129Z,100250.55
2019-05-07T23:04:16.541Z,100248.92
2019-05-07T23:07:22.196Z,100245.72
2019-05-07T23:10:25.148Z,100246.28
2019-05-07T23:13:28.669Z,100242.71
2019-05-07T23:16:32.506Z,100233.81
2019-05-07T23:19:37.084Z,100236.09
2019-05-07T23:22:42.843Z,100230.91
2019-05-07T23:25:46.372Z,100231.00
2019-05-07T23:28:51.762Z,100225.80
2019-05-07T23:31:56.006Z,100224.75
2019-05-07T23:35:05.443Z,100213.04
2019-05-07T23:38:09.202Z,100210.39
2019-05-07T23:41:24.964Z,100207.84
2019-05-07T23:44:28.445Z,100203.88
2019-05-07T23:47:31.959Z,100197.66
2019-05-07T23:50:35.458Z,100191.50
2019-05-07T23:53:40.003Z,100189.55
2019-05-07T23:56:44.495Z,100191.05
2019-05-07T23:59:49.049Z,100176.59
